Rumusan perlumbaan (Litar: Buenos Aires | Musim: 19 | Perlumbaan: 8 | Kumpulan: Elite)

Musim:  Perlumbaan:

Pilih kumpulan lain:

Pos Perkembangan Tayar Kew Nama pengurus Masa perlumbaan Lap Hentian pit Lap terbaik Kelajuan purata Masa lap terbaik
01. +6 +6 Michelini   Toygun Senler1 1h44:40.531 72 4 1:23.819 175.74km/h 9.107s
02. -1 -1 Michelini   Vladimir Islentiev2 + 0.536 72 4 1:23.924 175.73km/h 8.840s
03. +1 +1 Michelini   Jari Aareskoski3 + 30.950 72 4 1:23.849 174.88km/h 9.185s
04. +10 +10 Michelini   Tomasz Kaminski + 58.874 72 3 1:24.557 174.11km/h 13.151s
05. +19 +19 Dunnolop   Leandro Sereno2 + 59.196 72 4 1:24.388 174.10km/h 8.576s
06. Tidak berubah ±0 Michelini   João Monteiro + 59.593 72 4 1:24.220 174.09km/h 13.139s
07. +3 +3 Michelini   Aleksej Sutkin + 1:17.910 72 4 1:24.342 173.59km/h 12.440s
08. -5 -5 Michelini   Jan Zaluski + 1:26.035 72 4 1:24.492 173.37km/h 13.725s
09. -7 -7 Michelini   Joan Centellas + 1:26.400 71 5 1:24.216 173.36km/h 10.641s
10. -2 -2 Michelini   Edvinas Pranculevicius + 1:26.517 71 4 1:24.633 173.36km/h 10.285s
11. +5 +5 Michelini   Martynas Molneris + 1:26.828 71 4 1:24.483 173.35km/h 13.687s
12. -1 -1 Michelini   Denis Grahov + 1:27.020 71 4 1:24.943 173.34km/h 11.186s
13. -8 -8 Michelini   Nuno Vicente + 1:28.441 71 4 1:24.307 173.30km/h 11.807s
14. +6 +6 Michelini   Laila Britāle + 1:32.684 71 4 1:24.600 173.19km/h 11.195s
15. +7 +7 Dunnolop   Andrius Talandzevicius + 2:01.350 71 3 1:25.015 172.41km/h 12.793s
16. +3 +3 Michelini   Rimantas Sagatas + 2:10.097 71 4 1:24.815 172.18km/h 13.541s
17. -2 -2 Michelini   Wagner Souza + 2:22.652 71 4 1:24.933 171.84km/h 14.017s
18. -5 -5 Dunnolop   Michalis Marolachakis + 2:40.452 71 5 1:24.867 171.37km/h 13.009s
19. +2 +2 Michelini   Marek Marchewka + 2:50.612 71 3 1:25.874 171.10km/h 13.262s
20. -11 -11 Michelini   Zdenek Hladik + 4:12.402 70 3 1:26.903 168.95km/h 11.945s
21. +14 +14 Michelini   Renato Svaiter + 4:15.326 70 3 1:26.301 168.88km/h 15.162s
22. +8 +8 Dunnolop   Oli Jais + 4:33.550 69 3 1:26.683 168.41km/h 15.949s
23. +2 +2 Dunnolop   Daniele Ambroggi + 4:59.390 69 1 1:28.525 167.75km/h 14.461s
24. -7 -7 Michelini   Vitor Novo + 5:17.765 69 4 1:25.676 167.28km/h 14.912s
25. +11 +11 Dunnolop   Gabriel Toma + 5:18.344 69 3 1:27.708 167.26km/h 13.938s
26. +2 +2 Dunnolop   Kostas Farsalinos + 5:56.899 68 4 1:27.690 166.29km/h 19.041s
27. -15 -15 Badyear   Toni Söyrinki + 6:03.608 68 4 1:27.669 166.13km/h 16.768s
28. -10 -10 Badyear   Michael Monaco + 6:34.599 68 3 1:28.117 165.35km/h 13.998s
29. +4 +4 Michelini   Martin Rosina + 6:34.922 68 2 1:29.726 165.35km/h 14.385s
30. -3 -3 Michelini   Lucas Secundo Abreu + 6:36.466 68 3 1:25.818 165.31km/h 17.723s
31. +1 +1 Pipirelli   Philipp Hartmann + 6:59.453 68 2 1:29.862 164.74km/h 15.249s
32. -3 -3 Pipirelli   Mikko Heikkinen + 7:09.813 68 3 1:29.817 164.49km/h 16.378s
33. -2 -2 Pipirelli   Craig Templeman + 8:08.661 67 4 1:29.842 163.06km/h 15.066s
34. -11 -11 Badyear   Lee Ifans + 9:03.774 66 3 1:29.525 161.74km/h 15.278s
35. -9 -9 Michelini   Filipe Miguel + 9:33.145 66 3 1:30.740 161.05km/h 20.508s
Tidak tersenarai
36. -2 -2 Pipirelli   Martynas Atkočius Tayar pancit 54 3 1:31.281    15.538s